sensor_id;sensor_type;location;lat;lon;timestamp;pressure;altitude;pressure_sealevel;temperature;humidity
15489;BME280;7846;48.830;9.116;2023-05-25T00:00:43;98272.31;;;12.71;59.20
15489;BME280;7846;48.830;9.116;2023-05-25T00:03:08;98270.88;;;12.77;59.05
15489;BME280;7846;48.830;9.116;2023-05-25T00:05:34;98275.03;;;12.79;59.38
15489;BME280;7846;48.830;9.116;2023-05-25T00:08:00;98276.75;;;12.63;59.89
15489;BME280;7846;48.830;9.116;2023-05-25T00:10:25;98272.97;;;12.65;60.02
15489;BME280;7846;48.830;9.116;2023-05-25T00:12:52;98269.84;;;12.70;60.14
15489;BME280;7846;48.830;9.116;2023-05-25T00:15:17;98269.00;;;12.61;60.07
15489;BME280;7846;48.830;9.116;2023-05-25T00:17:43;98259.91;;;12.64;59.95
15489;BME280;7846;48.830;9.116;2023-05-25T00:20:09;98258.16;;;12.72;59.91
15489;BME280;7846;48.830;9.116;2023-05-25T00:22:42;98263.13;;;12.83;60.31
15489;BME280;7846;48.830;9.116;2023-05-25T00:25:09;98256.16;;;12.74;59.71
15489;BME280;7846;48.830;9.116;2023-05-25T00:27:35;98264.19;;;12.56;59.82
15489;BME280;7846;48.830;9.116;2023-05-25T00:30:02;98267.66;;;12.57;59.87
15489;BME280;7846;48.830;9.116;2023-05-25T00:32:27;98261.59;;;12.65;59.47
15489;BME280;7846;48.830;9.116;2023-05-25T00:34:54;98264.25;;;12.73;58.55
15489;BME280;7846;48.830;9.116;2023-05-25T00:37:19;98264.38;;;12.63;59.04
15489;BME280;7846;48.830;9.116;2023-05-25T00:39:44;98265.72;;;12.67;58.44
15489;BME280;7846;48.830;9.116;2023-05-25T00:42:10;98258.81;;;12.82;57.62
15489;BME280;7846;48.830;9.116;2023-05-25T00:44:36;98264.09;;;12.82;58.12
15489;BME280;7846;48.830;9.116;2023-05-25T00:47:02;98263.69;;;13.12;57.63
15489;BME280;7846;48.830;9.116;2023-05-25T00:49:30;98264.59;;;13.37;56.96
15489;BME280;7846;48.830;9.116;2023-05-25T00:51:56;98251.88;;;13.40;56.42
15489;BME280;7846;48.830;9.116;2023-05-25T00:54:22;98257.16;;;13.40;56.46
15489;BME280;7846;48.830;9.116;2023-05-25T00:56:55;98255.34;;;13.73;56.41
15489;BME280;7846;48.830;9.116;2023-05-25T00:59:49;98252.34;;;13.85;55.99
15489;BME280;7846;48.830;9.116;2023-05-25T01:02:18;98249.38;;;13.71;55.82
15489;BME280;7846;48.830;9.116;2023-05-25T01:04:51;98249.53;;;13.78;55.60
15489;BME280;7846;48.830;9.116;2023-05-25T01:07:20;98249.25;;;13.65;55.44
15489;BME280;7846;48.830;9.116;2023-05-25T01:10:05;98254.69;;;13.39;56.06
15489;BME280;7846;48.830;9.116;2023-05-25T01:12:34;98246.75;;;13.47;56.06
15489;BME280;7846;48.830;9.116;2023-05-25T01:15:01;98247.25;;;13.42;55.70
15489;BME280;7846;48.830;9.116;2023-05-25T01:17:28;98245.44;;;13.43;55.12
15489;BME280;7846;48.830;9.116;2023-05-25T01:19:53;98247.84;;;13.20;55.88
15489;BME280;7846;48.830;9.116;2023-05-25T01:22:31;98234.19;;;13.73;54.86
15489;BME280;7846;48.830;9.116;2023-05-25T01:25:06;98248.22;;;13.49;55.54
15489;BME280;7846;48.830;9.116;2023-05-25T01:27:43;98248.22;;;13.41;55.55
15489;BME280;7846;48.830;9.116;2023-05-25T01:30:13;98239.13;;;13.52;55.17
15489;BME280;7846;48.830;9.116;2023-05-25T01:32:42;98237.81;;;13.64;55.30
15489;BME280;7846;48.830;9.116;2023-05-25T01:35:10;98233.34;;;13.56;55.62
15489;BME280;7846;48.830;9.116;2023-05-25T01:37:36;98242.94;;;13.41;55.09
15489;BME280;7846;48.830;9.116;2023-05-25T01:40:05;98243.78;;;13.66;55.55
15489;BME280;7846;48.830;9.116;2023-05-25T01:42:31;98248.84;;;13.19;55.57
15489;BME280;7846;48.830;9.116;2023-05-25T01:44:57;98247.75;;;13.62;55.24
15489;BME280;7846;48.830;9.116;2023-05-25T01:47:31;98247.06;;;13.76;54.77
15489;BME280;7846;48.830;9.116;2023-05-25T01:50:13;98258.00;;;13.65;55.65
15489;BME280;7846;48.830;9.116;2023-05-25T01:52:56;98254.03;;;13.61;56.35
15489;BME280;7846;48.830;9.116;2023-05-25T01:55:26;98256.47;;;13.30;57.19
15489;BME280;7846;48.830;9.116;2023-05-25T01:57:55;98254.00;;;13.37;57.65
15489;BME280;7846;48.830;9.116;2023-05-25T02:00:24;98248.63;;;12.96;59.09
15489;BME280;7846;48.830;9.116;2023-05-25T02:02:51;98252.91;;;12.89;59.39
15489;BME280;7846;48.830;9.116;2023-05-25T02:05:18;98250.97;;;12.99;58.96
15489;BME280;7846;48.830;9.116;2023-05-25T02:07:44;98255.69;;;12.79;59.23
15489;BME280;7846;48.830;9.116;2023-05-25T02:10:10;98250.06;;;12.74;59.42
15489;BME280;7846;48.830;9.116;2023-05-25T02:12:38;98243.22;;;12.55;59.90
15489;BME280;7846;48.830;9.116;2023-05-25T02:15:05;98257.38;;;12.46;60.37
15489;BME280;7846;48.830;9.116;2023-05-25T02:17:30;98240.75;;;12.53;60.21
15489;BME280;7846;48.830;9.116;2023-05-25T02:19:57;98242.69;;;12.43;60.15
15489;BME280;7846;48.830;9.116;2023-05-25T02:22:23;98239.13;;;12.26;61.00
15489;BME280;7846;48.830;9.116;2023-05-25T02:24:48;98238.47;;;12.24;61.15
15489;BME280;7846;48.830;9.116;2023-05-25T02:27:14;98238.16;;;12.27;61.44
15489;BME280;7846;48.830;9.116;2023-05-25T02:29:39;98223.19;;;12.36;59.72
15489;BME280;7846;48.830;9.116;2023-05-25T02:32:05;98223.00;;;12.38;60.45
15489;BME280;7846;48.830;9.116;2023-05-25T02:34:31;98227.41;;;12.21;60.84
15489;BME280;7846;48.830;9.116;2023-05-25T02:36:56;98225.59;;;12.21;61.31
15489;BME280;7846;48.830;9.116;2023-05-25T02:39:22;98234.88;;;11.99;61.94
15489;BME280;7846;48.830;9.116;2023-05-25T02:41:47;98233.31;;;12.15;61.82
15489;BME280;7846;48.830;9.116;2023-05-25T02:44:13;98243.34;;;11.85;62.62
15489;BME280;7846;48.830;9.116;2023-05-25T02:46:39;98228.75;;;11.73;63.00
15489;BME280;7846;48.830;9.116;2023-05-25T02:49:04;98227.75;;;11.92;62.50
15489;BME280;7846;48.830;9.116;2023-05-25T02:51:30;98223.31;;;11.56;63.51
15489;BME280;7846;48.830;9.116;2023-05-25T02:53:56;98233.56;;;11.59;63.35
15489;BME280;7846;48.830;9.116;2023-05-25T02:56:21;98243.25;;;11.33;64.22
15489;BME280;7846;48.830;9.116;2023-05-25T02:58:48;98239.25;;;11.47;64.26
15489;BME280;7846;48.830;9.116;2023-05-25T03:01:13;98244.00;;;11.43;64.40
15489;BME280;7846;48.830;9.116;2023-05-25T03:03:44;98250.38;;;11.58;63.79
15489;BME280;7846;48.830;9.116;2023-05-25T03:06:10;98245.47;;;11.46;63.30
15489;BME280;7846;48.830;9.116;2023-05-25T03:08:37;98250.38;;;11.58;63.46
15489;BME280;7846;48.830;9.116;2023-05-25T03:11:02;98251.97;;;11.33;63.74
15489;BME280;7846;48.830;9.116;2023-05-25T03:13:28;98259.59;;;11.36;64.04
15489;BME280;7846;48.830;9.116;2023-05-25T03:15:55;98257.19;;;11.25;64.31
15489;BME280;7846;48.830;9.116;2023-05-25T03:18:20;98258.00;;;11.26;64.17
15489;BME280;7846;48.830;9.116;2023-05-25T03:20:46;98262.38;;;11.17;64.47
15489;BME280;7846;48.830;9.116;2023-05-25T03:23:12;98254.47;;;11.17;64.50
15489;BME280;7846;48.830;9.116;2023-05-25T03:25:38;98257.34;;;11.24;64.21
15489;BME280;7846;48.830;9.116;2023-05-25T03:28:04;98261.56;;;11.17;63.92
15489;BME280;7846;48.830;9.116;2023-05-25T03:30:31;98256.81;;;11.20;63.19
15489;BME280;7846;48.830;9.116;2023-05-25T03:32:56;98254.53;;;11.25;64.19
15489;BME280;7846;48.830;9.116;2023-05-25T03:35:22;98261.22;;;11.20;64.25
15489;BME280;7846;48.830;9.116;2023-05-25T03:37:48;98258.75;;;11.18;63.90
15489;BME280;7846;48.830;9.116;2023-05-25T03:40:13;98253.25;;;11.11;64.57
15489;BME280;7846;48.830;9.116;2023-05-25T03:42:39;98258.31;;;11.23;64.39
15489;BME280;7846;48.830;9.116;2023-05-25T03:45:05;98261.34;;;11.28;64.25
15489;BME280;7846;48.830;9.116;2023-05-25T03:47:32;98258.00;;;11.26;64.52
15489;BME280;7846;48.830;9.116;2023-05-25T03:49:58;98264.78;;;11.28;64.30
15489;BME280;7846;48.830;9.116;2023-05-25T03:52:24;98267.44;;;11.28;64.51
15489;BME280;7846;48.830;9.116;2023-05-25T03:54:49;98270.34;;;11.25;64.47
15489;BME280;7846;48.830;9.116;2023-05-25T03:57:16;98276.81;;;11.31;64.40
15489;BME280;7846;48.830;9.116;2023-05-25T03:59:42;98275.34;;;11.46;64.46
15489;BME280;7846;48.830;9.116;2023-05-25T04:02:11;98280.44;;;11.48;64.15
15489;BME280;7846;48.830;9.116;2023-05-25T04:04:38;98276.81;;;11.49;64.29
15489;BME280;7846;48.830;9.116;2023-05-25T04:07:06;98277.50;;;11.51;64.01
15489;BME280;7846;48.830;9.116;2023-05-25T04:09:31;98283.00;;;11.39;64.15
15489;BME280;7846;48.830;9.116;2023-05-25T04:11:57;98297.63;;;11.52;64.15
15489;BME280;7846;48.830;9.116;2023-05-25T04:14:23;98291.16;;;11.46;63.72
15489;BME280;7846;48.830;9.116;2023-05-25T04:16:52;98290.44;;;11.08;64.85
15489;BME280;7846;48.830;9.116;2023-05-25T04:19:17;98300.16;;;11.26;64.63
15489;BME280;7846;48.830;9.116;2023-05-25T04:21:43;98297.84;;;11.41;64.67
15489;BME280;7846;48.830;9.116;2023-05-25T04:24:08;98298.97;;;11.56;64.39
15489;BME280;7846;48.830;9.116;2023-05-25T04:26:33;98298.31;;;11.54;63.71
15489;BME280;7846;48.830;9.116;2023-05-25T04:29:00;98296.78;;;11.69;63.78
15489;BME280;7846;48.830;9.116;2023-05-25T04:31:27;98295.84;;;11.78;63.78
15489;BME280;7846;48.830;9.116;2023-05-25T04:33:52;98291.63;;;11.68;63.33
15489;BME280;7846;48.830;9.116;2023-05-25T04:36:20;98290.28;;;11.63;63.68
15489;BME280;7846;48.830;9.116;2023-05-25T04:38:46;98292.91;;;11.81;63.18
15489;BME280;7846;48.830;9.116;2023-05-25T04:41:12;98294.25;;;12.03;62.89
15489;BME280;7846;48.830;9.116;2023-05-25T04:43:38;98289.75;;;11.78;63.12
15489;BME280;7846;48.830;9.116;2023-05-25T04:46:04;98301.66;;;12.00;63.51
15489;BME280;7846;48.830;9.116;2023-05-25T04:48:29;98303.28;;;12.01;62.58
15489;BME280;7846;48.830;9.116;2023-05-25T04:50:58;98298.25;;;12.07;63.52
15489;BME280;7846;48.830;9.116;2023-05-25T04:53:27;98302.06;;;11.69;64.19
15489;BME280;7846;48.830;9.116;2023-05-25T04:55:53;98296.63;;;11.89;64.23
15489;BME280;7846;48.830;9.116;2023-05-25T04:58:20;98305.22;;;11.91;64.12
15489;BME280;7846;48.830;9.116;2023-05-25T05:00:45;98301.13;;;12.22;63.51
15489;BME280;7846;48.830;9.116;2023-05-25T05:03:11;98293.72;;;12.52;62.75
15489;BME280;7846;48.830;9.116;2023-05-25T05:05:37;98296.88;;;12.64;62.70
15489;BME280;7846;48.830;9.116;2023-05-25T05:08:02;98302.38;;;12.70;62.34
15489;BME280;7846;48.830;9.116;2023-05-25T05:10:29;98301.47;;;12.96;61.87
15489;BME280;7846;48.830;9.116;2023-05-25T05:12:54;98306.88;;;13.28;61.14
15489;BME280;7846;48.830;9.116;2023-05-25T05:15:20;98313.50;;;12.90;61.03
15489;BME280;7846;48.830;9.116;2023-05-25T05:17:47;98312.88;;;12.96;61.27
15489;BME280;7846;48.830;9.116;2023-05-25T05:20:12;98321.22;;;12.75;61.21
15489;BME280;7846;48.830;9.116;2023-05-25T05:22:37;98324.97;;;12.65;62.61
15489;BME280;7846;48.830;9.116;2023-05-25T05:25:03;98335.81;;;12.88;62.04
15489;BME280;7846;48.830;9.116;2023-05-25T05:27:29;98330.44;;;12.71;62.13
15489;BME280;7846;48.830;9.116;2023-05-25T05:29:54;98335.56;;;12.39;63.35
15489;BME280;7846;48.830;9.116;2023-05-25T05:32:20;98336.44;;;12.47;63.42
15489;BME280;7846;48.830;9.116;2023-05-25T05:34:45;98331.91;;;13.16;61.89
15489;BME280;7846;48.830;9.116;2023-05-25T05:37:11;98335.06;;;13.12;62.05
15489;BME280;7846;48.830;9.116;2023-05-25T05:39:37;98335.53;;;13.66;60.39
15489;BME280;7846;48.830;9.116;2023-05-25T05:42:02;98336.66;;;13.47;60.54
15489;BME280;7846;48.830;9.116;2023-05-25T05:44:27;98333.94;;;13.22;61.56
15489;BME280;7846;48.830;9.116;2023-05-25T05:46:53;98342.69;;;13.23;61.84
15489;BME280;7846;48.830;9.116;2023-05-25T05:49:25;98342.41;;;13.34;62.14
15489;BME280;7846;48.830;9.116;2023-05-25T05:51:50;98335.97;;;13.28;61.41
15489;BME280;7846;48.830;9.116;2023-05-25T05:54:16;98347.06;;;13.40;60.27
15489;BME280;7846;48.830;9.116;2023-05-25T05:56:43;98351.97;;;13.27;61.28
15489;BME280;7846;48.830;9.116;2023-05-25T05:59:10;98357.34;;;13.51;60.91
15489;BME280;7846;48.830;9.116;2023-05-25T06:01:35;98359.16;;;13.59;60.14
15489;BME280;7846;48.830;9.116;2023-05-25T06:04:01;98359.66;;;13.79;59.52
15489;BME280;7846;48.830;9.116;2023-05-25T06:06:26;98360.69;;;13.94;59.86
15489;BME280;7846;48.830;9.116;2023-05-25T06:08:53;98363.66;;;14.16;59.70
15489;BME280;7846;48.830;9.116;2023-05-25T06:11:18;98361.25;;;14.78;58.07
15489;BME280;7846;48.830;9.116;2023-05-25T06:13:44;98367.63;;;14.28;57.53
15489;BME280;7846;48.830;9.116;2023-05-25T06:16:10;98364.13;;;14.68;57.30
15489;BME280;7846;48.830;9.116;2023-05-25T06:18:36;98370.19;;;15.24;56.63
15489;BME280;7846;48.830;9.116;2023-05-25T06:21:02;98372.25;;;14.18;58.08
15489;BME280;7846;48.830;9.116;2023-05-25T06:23:27;98369.75;;;14.65;57.40
15489;BME280;7846;48.830;9.116;2023-05-25T06:25:53;98369.69;;;14.82;56.68
15489;BME280;7846;48.830;9.116;2023-05-25T06:28:19;98361.03;;;15.27;55.95
15489;BME280;7846;48.830;9.116;2023-05-25T06:30:45;98368.47;;;15.63;55.26
15489;BME280;7846;48.830;9.116;2023-05-25T06:33:11;98375.97;;;15.28;55.76
15489;BME280;7846;48.830;9.116;2023-05-25T06:35:36;98372.84;;;16.02;54.74
15489;BME280;7846;48.830;9.116;2023-05-25T06:38:02;98371.91;;;16.17;54.09
15489;BME280;7846;48.830;9.116;2023-05-25T06:40:28;98368.66;;;15.30;55.40
15489;BME280;7846;48.830;9.116;2023-05-25T06:42:53;98373.03;;;15.15;56.03
15489;BME280;7846;48.830;9.116;2023-05-25T06:45:19;98387.94;;;15.16;56.69
15489;BME280;7846;48.830;9.116;2023-05-25T06:47:44;98379.63;;;14.88;56.48
15489;BME280;7846;48.830;9.116;2023-05-25T06:50:10;98378.50;;;15.21;56.82
15489;BME280;7846;48.830;9.116;2023-05-25T06:52:36;98380.34;;;15.13;57.02
15489;BME280;7846;48.830;9.116;2023-05-25T06:55:02;98380.91;;;15.31;56.00
15489;BME280;7846;48.830;9.116;2023-05-25T06:57:28;98379.84;;;15.17;56.39
15489;BME280;7846;48.830;9.116;2023-05-25T06:59:53;98383.72;;;14.90;56.61
15489;BME280;7846;48.830;9.116;2023-05-25T07:02:18;98391.75;;;15.21;56.59
15489;BME280;7846;48.830;9.116;2023-05-25T07:04:45;98389.06;;;15.30;56.26
15489;BME280;7846;48.830;9.116;2023-05-25T07:07:10;98385.53;;;15.06;57.02
15489;BME280;7846;48.830;9.116;2023-05-25T07:09:37;98396.66;;;15.33;56.39
15489;BME280;7846;48.830;9.116;2023-05-25T07:12:04;98394.72;;;15.58;56.15
15489;BME280;7846;48.830;9.116;2023-05-25T07:14:33;98390.13;;;16.06;55.57
15489;BME280;7846;48.830;9.116;2023-05-25T07:16:58;98393.88;;;16.11;54.32
15489;BME280;7846;48.830;9.116;2023-05-25T07:19:25;98392.72;;;15.91;54.88
15489;BME280;7846;48.830;9.116;2023-05-25T07:21:51;98396.88;;;15.85;55.41
15489;BME280;7846;48.830;9.116;2023-05-25T07:24:16;98395.41;;;16.29;54.54
15489;BME280;7846;48.830;9.116;2023-05-25T07:26:43;98397.59;;;16.25;54.32
15489;BME280;7846;48.830;9.116;2023-05-25T07:29:09;98399.44;;;16.92;52.95
15489;BME280;7846;48.830;9.116;2023-05-25T07:31:34;98406.25;;;16.19;53.84
15489;BME280;7846;48.830;9.116;2023-05-25T07:34:00;98403.28;;;17.34;52.98
15489;BME280;7846;48.830;9.116;2023-05-25T07:36:26;98397.06;;;16.97;53.64
15489;BME280;7846;48.830;9.116;2023-05-25T07:38:51;98400.94;;;16.95;53.38
15489;BME280;7846;48.830;9.116;2023-05-25T07:41:16;98396.94;;;17.20;52.90
15489;BME280;7846;48.830;9.116;2023-05-25T07:43:43;98400.13;;;17.45;52.21
15489;BME280;7846;48.830;9.116;2023-05-25T07:46:09;98398.38;;;17.52;52.13
15489;BME280;7846;48.830;9.116;2023-05-25T07:48:34;98397.41;;;16.94;53.91
15489;BME280;7846;48.830;9.116;2023-05-25T07:51:00;98416.13;;;17.15;53.20
15489;BME280;7846;48.830;9.116;2023-05-25T07:53:26;98400.03;;;18.32;51.77
15489;BME280;7846;48.830;9.116;2023-05-25T07:55:52;98394.72;;;19.30;50.13
15489;BME280;7846;48.830;9.116;2023-05-25T07:58:17;98403.03;;;19.07;48.36
15489;BME280;7846;48.830;9.116;2023-05-25T08:00:42;98390.56;;;19.69;48.40
15489;BME280;7846;48.830;9.116;2023-05-25T08:03:08;98404.84;;;20.02;47.31
15489;BME280;7846;48.830;9.116;2023-05-25T08:05:33;98403.88;;;18.79;49.75
15489;BME280;7846;48.830;9.116;2023-05-25T08:07:59;98398.63;;;18.15;50.54
15489;BME280;7846;48.830;9.116;2023-05-25T08:10:24;98396.63;;;19.49;49.82
15489;BME280;7846;48.830;9.116;2023-05-25T08:12:55;98399.66;;;19.33;49.05
15489;BME280;7846;48.830;9.116;2023-05-25T08:15:20;98391.69;;;20.47;46.77
15489;BME280;7846;48.830;9.116;2023-05-25T08:17:47;98391.47;;;20.75;46.92
15489;BME280;7846;48.830;9.116;2023-05-25T08:20:15;98385.47;;;19.94;47.37
15489;BME280;7846;48.830;9.116;2023-05-25T08:22:41;98396.41;;;20.72;46.81
15489;BME280;7846;48.830;9.116;2023-05-25T08:25:07;98400.66;;;21.06;46.53
15489;BME280;7846;48.830;9.116;2023-05-25T08:27:33;98400.13;;;20.71;46.56
15489;BME280;7846;48.830;9.116;2023-05-25T08:29:59;98396.22;;;20.40;47.87
15489;BME280;7846;48.830;9.116;2023-05-25T08:32:24;98407.28;;;20.90;46.66
15489;BME280;7846;48.830;9.116;2023-05-25T08:34:50;98402.47;;;21.25;47.16
15489;BME280;7846;48.830;9.116;2023-05-25T08:37:15;98402.50;;;19.79;48.41
15489;BME280;7846;48.830;9.116;2023-05-25T08:39:41;98405.44;;;20.24;49.19
15489;BME280;7846;48.830;9.116;2023-05-25T08:42:07;98405.88;;;20.81;47.80
15489;BME280;7846;48.830;9.116;2023-05-25T08:44:34;98409.09;;;19.77;48.89
15489;BME280;7846;48.830;9.116;2023-05-25T08:47:04;98414.91;;;20.27;49.45
15489;BME280;7846;48.830;9.116;2023-05-25T08:49:31;98412.22;;;21.00;48.11
15489;BME280;7846;48.830;9.116;2023-05-25T08:51:58;98411.50;;;21.44;46.64
15489;BME280;7846;48.830;9.116;2023-05-25T08:54:28;98419.00;;;20.10;47.45
15489;BME280;7846;48.830;9.116;2023-05-25T09:00:02;98410.91;;;22.12;45.69
15489;BME280;7846;48.830;9.116;2023-05-25T09:02:49;98400.53;;;22.29;45.37
15489;BME280;7846;48.830;9.116;2023-05-25T09:05:16;98397.63;;;21.02;46.97
15489;BME280;7846;48.830;9.116;2023-05-25T09:07:43;98393.72;;;19.92;49.31
15489;BME280;7846;48.830;9.116;2023-05-25T09:10:13;98398.41;;;21.68;46.29
15489;BME280;7846;48.830;9.116;2023-05-25T09:12:40;98402.97;;;21.02;47.26
15489;BME280;7846;48.830;9.116;2023-05-25T09:15:07;98398.06;;;20.33;47.84
15489;BME280;7846;48.830;9.116;2023-05-25T09:17:33;98401.63;;;21.77;47.20
15489;BME280;7846;48.830;9.116;2023-05-25T09:19:59;98393.13;;;22.50;45.04
15489;BME280;7846;48.830;9.116;2023-05-25T09:22:25;98401.22;;;23.30;44.09
15489;BME280;7846;48.830;9.116;2023-05-25T09:24:53;98400.91;;;23.19;43.21
15489;BME280;7846;48.830;9.116;2023-05-25T09:27:21;98403.72;;;21.36;47.15
15489;BME280;7846;48.830;9.116;2023-05-25T09:29:50;98408.22;;;21.29;47.25
15489;BME280;7846;48.830;9.116;2023-05-25T09:32:16;98402.84;;;23.12;45.51
15489;BME280;7846;48.830;9.116;2023-05-25T09:34:43;98409.22;;;23.85;43.06
15489;BME280;7846;48.830;9.116;2023-05-25T09:37:14;98408.81;;;21.51;46.25
15489;BME280;7846;48.830;9.116;2023-05-25T09:39:41;98408.16;;;22.51;45.88
15489;BME280;7846;48.830;9.116;2023-05-25T09:42:06;98404.22;;;23.88;43.40
15489;BME280;7846;48.830;9.116;2023-05-25T09:44:32;98410.94;;;24.98;41.83
15489;BME280;7846;48.830;9.116;2023-05-25T09:46:57;98414.16;;;24.30;41.21
15489;BME280;7846;48.830;9.116;2023-05-25T09:49:23;98420.97;;;24.02;42.49
15489;BME280;7846;48.830;9.116;2023-05-25T09:51:49;98422.78;;;23.41;43.73
15489;BME280;7846;48.830;9.116;2023-05-25T09:54:15;98405.81;;;22.61;44.15
15489;BME280;7846;48.830;9.116;2023-05-25T09:56:40;98417.03;;;23.01;43.92
15489;BME280;7846;48.830;9.116;2023-05-25T09:59:06;98411.72;;;23.98;44.55
15489;BME280;7846;48.830;9.116;2023-05-25T10:01:33;98414.09;;;25.30;41.88
15489;BME280;7846;48.830;9.116;2023-05-25T10:03:59;98411.94;;;25.32;39.78
15489;BME280;7846;48.830;9.116;2023-05-25T10:06:31;98415.63;;;25.95;40.22
15489;BME280;7846;48.830;9.116;2023-05-25T10:08:57;98412.13;;;25.14;40.61
15489;BME280;7846;48.830;9.116;2023-05-25T10:11:24;98412.69;;;25.04;42.18
15489;BME280;7846;48.830;9.116;2023-05-25T10:13:55;98410.91;;;23.12;43.36
15489;BME280;7846;48.830;9.116;2023-05-25T10:16:25;98403.66;;;24.10;42.19
15489;BME280;7846;48.830;9.116;2023-05-25T10:18:57;98405.56;;;24.75;42.29
15489;BME280;7846;48.830;9.116;2023-05-25T10:21:28;98405.78;;;23.11;44.43
15489;BME280;7846;48.830;9.116;2023-05-25T10:24:10;98410.34;;;24.61;42.66
15489;BME280;7846;48.830;9.116;2023-05-25T10:26:41;98402.75;;;24.70;41.99
15489;BME280;7846;48.830;9.116;2023-05-25T10:29:11;98402.03;;;24.98;42.00
15489;BME280;7846;48.830;9.116;2023-05-25T10:31:38;98398.97;;;24.47;41.46
15489;BME280;7846;48.830;9.116;2023-05-25T10:34:05;98404.59;;;24.69;43.02
15489;BME280;7846;48.830;9.116;2023-05-25T10:36:32;98393.88;;;24.81;41.33
15489;BME280;7846;48.830;9.116;2023-05-25T10:38:59;98399.50;;;25.55;40.88
15489;BME280;7846;48.830;9.116;2023-05-25T10:41:26;98397.47;;;24.63;41.86
15489;BME280;7846;48.830;9.116;2023-05-25T10:43:51;98395.06;;;24.20;43.39
15489;BME280;7846;48.830;9.116;2023-05-25T10:46:17;98392.53;;;25.30;42.65
15489;BME280;7846;48.830;9.116;2023-05-25T10:48:48;98389.44;;;25.79;40.32
15489;BME280;7846;48.830;9.116;2023-05-25T10:51:14;98391.34;;;25.03;41.62
15489;BME280;7846;48.830;9.116;2023-05-25T10:53:47;98383.44;;;26.05;40.07
15489;BME280;7846;48.830;9.116;2023-05-25T10:56:22;98393.88;;;25.45;40.55
15489;BME280;7846;48.830;9.116;2023-05-25T10:58:47;98393.84;;;26.30;40.35
15489;BME280;7846;48.830;9.116;2023-05-25T11:01:14;98396.38;;;26.88;40.04
15489;BME280;7846;48.830;9.116;2023-05-25T11:06:13;98403.19;;;26.40;38.64
15489;BME280;7846;48.830;9.116;2023-05-25T11:08:59;98398.41;;;25.96;40.88
15489;BME280;7846;48.830;9.116;2023-05-25T11:17:14;98387.94;;;28.21;37.36
15489;BME280;7846;48.830;9.116;2023-05-25T11:19:53;98394.88;;;27.80;37.77
15489;BME280;7846;48.830;9.116;2023-05-25T11:22:36;98387.88;;;28.38;36.47
15489;BME280;7846;48.830;9.116;2023-05-25T11:27:49;98391.22;;;26.36;38.02
15489;BME280;7846;48.830;9.116;2023-05-25T11:30:16;98390.88;;;27.38;38.31
15489;BME280;7846;48.830;9.116;2023-05-25T11:32:47;98386.53;;;28.13;36.94
15489;BME280;7846;48.830;9.116;2023-05-25T11:35:16;98391.22;;;28.23;36.75
15489;BME280;7846;48.830;9.116;2023-05-25T11:37:48;98392.31;;;27.46;37.23
15489;BME280;7846;48.830;9.116;2023-05-25T11:40:14;98388.69;;;26.96;36.95
15489;BME280;7846;48.830;9.116;2023-05-25T11:42:40;98382.09;;;27.09;37.37
15489;BME280;7846;48.830;9.116;2023-05-25T11:45:10;98379.63;;;27.08;38.16
15489;BME280;7846;48.830;9.116;2023-05-25T11:47:35;98376.75;;;27.36;36.92
15489;BME280;7846;48.830;9.116;2023-05-25T11:50:00;98375.06;;;27.52;36.13
15489;BME280;7846;48.830;9.116;2023-05-25T11:52:26;98379.06;;;27.06;37.43
15489;BME280;7846;48.830;9.116;2023-05-25T11:54:53;98386.75;;;25.79;38.59
15489;BME280;7846;48.830;9.116;2023-05-25T11:57:20;98378.16;;;27.39;37.97
15489;BME280;7846;48.830;9.116;2023-05-25T11:59:57;98384.44;;;27.66;36.37
15489;BME280;7846;48.830;9.116;2023-05-25T12:02:26;98390.88;;;25.70;38.12
15489;BME280;7846;48.830;9.116;2023-05-25T12:04:59;98380.13;;;26.15;38.90
15489;BME280;7846;48.830;9.116;2023-05-25T12:07:26;98380.44;;;26.69;38.65
15489;BME280;7846;48.830;9.116;2023-05-25T12:10:08;98374.78;;;26.03;38.99
15489;BME280;7846;48.830;9.116;2023-05-25T12:12:45;98381.84;;;25.64;39.31
15489;BME280;7846;48.830;9.116;2023-05-25T12:15:16;98378.53;;;25.45;39.50
15489;BME280;7846;48.830;9.116;2023-05-25T12:17:43;98362.28;;;26.65;38.03
15489;BME280;7846;48.830;9.116;2023-05-25T12:20:10;98368.78;;;27.24;37.79
15489;BME280;7846;48.830;9.116;2023-05-25T12:22:37;98375.50;;;25.70;39.40
15489;BME280;7846;48.830;9.116;2023-05-25T12:25:05;98371.03;;;26.38;38.73
15489;BME280;7846;48.830;9.116;2023-05-25T12:27:30;98371.34;;;26.25;38.37
15489;BME280;7846;48.830;9.116;2023-05-25T12:29:57;98375.41;;;25.65;38.39
15489;BME280;7846;48.830;9.116;2023-05-25T12:32:23;98372.00;;;26.32;39.04
15489;BME280;7846;48.830;9.116;2023-05-25T12:34:49;98365.47;;;26.62;37.98
15489;BME280;7846;48.830;9.116;2023-05-25T12:37:19;98364.53;;;25.08;39.77
15489;BME280;7846;48.830;9.116;2023-05-25T12:39:46;98371.25;;;26.03;39.94
15489;BME280;7846;48.830;9.116;2023-05-25T12:42:13;98365.28;;;27.73;37.50
15489;BME280;7846;48.830;9.116;2023-05-25T12:44:39;98365.38;;;28.75;35.46
15489;BME280;7846;48.830;9.116;2023-05-25T12:47:13;98375.81;;;28.98;35.68
15489;BME280;7846;48.830;9.116;2023-05-25T12:49:43;98375.22;;;28.91;35.93
15489;BME280;7846;48.830;9.116;2023-05-25T12:52:10;98374.06;;;29.29;34.90
15489;BME280;7846;48.830;9.116;2023-05-25T12:54:39;98378.47;;;29.46;34.25
15489;BME280;7846;48.830;9.116;2023-05-25T12:57:07;98378.75;;;29.54;35.28
15489;BME280;7846;48.830;9.116;2023-05-25T12:59:34;98377.53;;;27.32;37.04
15489;BME280;7846;48.830;9.116;2023-05-25T13:02:00;98372.22;;;27.86;35.65
15489;BME280;7846;48.830;9.116;2023-05-25T13:04:25;98374.69;;;27.21;37.43
15489;BME280;7846;48.830;9.116;2023-05-25T13:06:52;98377.09;;;28.90;36.17
15489;BME280;7846;48.830;9.116;2023-05-25T13:09:18;98368.50;;;28.29;34.85
15489;BME280;7846;48.830;9.116;2023-05-25T13:11:43;98364.28;;;30.27;33.66
15489;BME280;7846;48.830;9.116;2023-05-25T13:14:09;98362.09;;;30.49;32.35
15489;BME280;7846;48.830;9.116;2023-05-25T13:16:34;98363.97;;;30.54;32.15
15489;BME280;7846;48.830;9.116;2023-05-25T13:19:00;98378.66;;;30.53;33.60
15489;BME280;7846;48.830;9.116;2023-05-25T13:21:26;98376.75;;;30.43;32.47
15489;BME280;7846;48.830;9.116;2023-05-25T13:23:52;98372.88;;;29.68;33.24